createdAt,value
2022-12-14T00:01:19.793Z,79039.72
2022-12-14T00:03:46.724Z,79025.81
2022-12-14T00:06:14.509Z,79023.81
2022-12-14T00:08:42.180Z,79035.75
2022-12-14T00:11:09.519Z,79021.81
2022-12-14T00:13:36.113Z,79017.84
2022-12-14T00:16:13.699Z,79021.81
2022-12-14T00:18:40.723Z,79005.91
2022-12-14T00:21:10.120Z,79011.88
2022-12-14T00:23:39.391Z,79019.84
2022-12-14T00:26:14.796Z,79005.91
2022-12-14T00:28:42.614Z,78997.97
2022-12-14T00:31:09.730Z,79017.84
2022-12-14T00:33:36.799Z,79003.94
2022-12-14T00:36:04.863Z,79019.84
2022-12-14T00:38:31.384Z,79025.81
2022-12-14T00:40:58.427Z,79017.84
2022-12-14T00:43:25.508Z,79025.81
2022-12-14T00:45:52.614Z,79021.81
2022-12-14T00:48:20.494Z,79019.84
2022-12-14T00:50:48.692Z,79035.75
2022-12-14T00:53:15.617Z,79047.69
2022-12-14T00:55:49.037Z,79031.75
2022-12-14T00:58:20.964Z,79041.72
2022-12-14T01:00:48.391Z,79043.69
2022-12-14T01:03:15.570Z,79035.75
2022-12-14T01:05:42.407Z,79031.75
2022-12-14T01:08:15.744Z,79029.78
2022-12-14T01:10:42.115Z,79023.81
2022-12-14T01:13:10.957Z,79021.81
2022-12-14T01:15:37.423Z,79027.78
2022-12-14T01:18:04.073Z,79039.72
2022-12-14T01:20:30.736Z,79027.78
2022-12-14T01:22:57.164Z,79019.84
2022-12-14T01:25:23.612Z,79035.75
2022-12-14T01:27:50.161Z,79041.72
2022-12-14T01:30:18.262Z,79029.78
2022-12-14T01:32:45.351Z,79051.66
2022-12-14T01:35:11.747Z,79061.59
2022-12-14T01:37:38.156Z,79059.59
2022-12-14T01:40:05.139Z,79051.66
2022-12-14T01:42:35.492Z,79063.59
2022-12-14T01:45:01.923Z,79061.59
2022-12-14T01:47:40.303Z,79055.63
2022-12-14T01:50:37.003Z,79045.69
2022-12-14T01:53:07.601Z,79057.63
2022-12-14T01:55:39.324Z,79071.53
2022-12-14T01:58:13.525Z,79059.59
2022-12-14T02:00:40.542Z,79063.59
2022-12-14T02:03:15.091Z,79043.69
2022-12-14T02:05:45.802Z,79045.69
2022-12-14T02:08:13.607Z,79057.63
2022-12-14T02:10:40.901Z,79055.63
2022-12-14T02:13:20.856Z,79055.63
2022-12-14T02:15:47.360Z,79053.63
2022-12-14T02:18:19.462Z,79041.72
2022-12-14T02:21:17.965Z,79057.63
2022-12-14T02:24:14.989Z,79071.53
2022-12-14T02:26:47.534Z,79083.47
2022-12-14T02:29:48.272Z,79081.47
2022-12-14T02:32:42.516Z,79081.47
2022-12-14T02:35:32.174Z,79069.56
2022-12-14T02:38:16.709Z,79071.53
2022-12-14T02:41:02.117Z,79087.44
2022-12-14T02:43:55.060Z,79085.47
2022-12-14T02:49:04.823Z,79091.44
2022-12-14T02:51:34.153Z,79087.44
2022-12-14T02:54:08.054Z,79071.53
2022-12-14T02:56:42.643Z,79083.47
2022-12-14T02:59:10.111Z,79095.41
2022-12-14T03:01:39.025Z,79083.47
2022-12-14T03:04:07.215Z,79095.41
2022-12-14T03:06:33.768Z,79083.47
2022-12-14T03:09:17.842Z,79083.47
2022-12-14T03:11:56.103Z,79069.56
2022-12-14T03:14:36.094Z,79075.50
2022-12-14T03:17:10.267Z,79079.50
2022-12-14T03:19:41.734Z,79081.47
2022-12-14T03:22:14.779Z,79079.50
2022-12-14T03:24:45.281Z,79059.59
2022-12-14T03:27:27.453Z,79077.50
2022-12-14T03:29:59.055Z,79087.44
2022-12-14T03:32:30.070Z,79061.59
2022-12-14T03:35:18.894Z,79053.63
2022-12-14T03:37:53.413Z,79065.56
2022-12-14T03:40:26.769Z,79081.47
2022-12-14T03:43:02.378Z,79083.47
2022-12-14T03:45:33.130Z,79083.47
2022-12-14T03:48:11.556Z,79083.47
2022-12-14T03:50:44.917Z,79067.56
2022-12-14T03:53:30.468Z,79057.63
2022-12-14T03:56:03.983Z,79075.50
2022-12-14T03:59:01.295Z,79071.53
2022-12-14T04:01:37.846Z,79055.63
2022-12-14T04:04:37.340Z,79051.66
2022-12-14T04:07:21.919Z,79063.59
2022-12-14T04:09:59.832Z,79051.66
2022-12-14T04:12:51.544Z,79045.69
2022-12-14T04:15:45.075Z,79051.66
2022-12-14T04:18:36.924Z,79051.66
2022-12-14T04:21:15.342Z,79043.69
2022-12-14T04:24:07.478Z,79047.69
2022-12-14T04:26:39.528Z,79051.66
2022-12-14T04:29:29.657Z,79053.63
2022-12-14T04:32:03.495Z,79043.69
2022-12-14T04:34:32.362Z,79035.75
2022-12-14T04:37:03.310Z,79037.72
2022-12-14T04:39:52.852Z,79019.84
2022-12-14T04:42:24.848Z,79047.69
2022-12-14T04:44:55.379Z,79045.69
2022-12-14T04:47:28.749Z,79041.72
2022-12-14T04:50:01.870Z,79033.75
2022-12-14T04:52:40.180Z,79037.72
2022-12-14T04:55:32.871Z,79041.72
2022-12-14T04:58:08.638Z,79025.81
2022-12-14T05:00:41.772Z,79025.81
2022-12-14T05:03:25.817Z,79021.81
2022-12-14T05:06:06.810Z,79013.88
2022-12-14T05:09:02.132Z,79021.81
2022-12-14T05:14:46.651Z,79015.84
2022-12-14T05:17:14.216Z,79009.88
2022-12-14T05:19:50.894Z,79017.84
2022-12-14T05:22:18.221Z,79005.91
2022-12-14T05:24:44.584Z,79021.81
2022-12-14T05:27:10.964Z,79023.81
2022-12-14T05:29:37.433Z,79017.84
2022-12-14T05:32:04.538Z,78993.97
2022-12-14T05:34:30.990Z,79007.91
2022-12-14T05:36:58.096Z,78999.94
2022-12-14T05:39:24.723Z,78992.00
2022-12-14T05:41:57.136Z,78988.00
2022-12-14T05:44:23.627Z,78984.03
2022-12-14T05:46:52.837Z,78982.06
2022-12-14T05:49:22.180Z,78978.06
2022-12-14T05:51:49.210Z,78980.06
2022-12-14T05:54:15.777Z,78974.09
2022-12-14T05:56:45.894Z,78972.09
2022-12-14T05:59:15.545Z,78970.13
2022-12-14T06:01:43.425Z,78962.16
2022-12-14T06:04:14.421Z,78968.13
2022-12-14T06:06:41.659Z,78958.19
2022-12-14T06:09:16.851Z,78972.09
2022-12-14T06:11:44.813Z,78982.06
2022-12-14T06:14:11.952Z,78980.06
2022-12-14T06:16:43.126Z,78976.09
2022-12-14T06:19:11.373Z,78980.06
2022-12-14T06:21:40.524Z,78984.03
2022-12-14T06:24:08.086Z,78974.09
2022-12-14T06:26:41.005Z,78974.09
2022-12-14T06:29:10.538Z,78972.09
2022-12-14T06:31:38.193Z,78960.19
2022-12-14T06:34:04.647Z,78948.25
2022-12-14T06:36:34.413Z,78934.31
2022-12-14T06:39:04.728Z,78952.22
2022-12-14T06:41:31.550Z,78966.16
2022-12-14T06:44:03.565Z,78962.16
2022-12-14T06:46:30.019Z,78976.09
2022-12-14T06:48:56.492Z,78952.22
2022-12-14T06:51:24.194Z,78950.22
2022-12-14T06:53:52.680Z,78956.19
2022-12-14T06:56:20.644Z,78964.16
2022-12-14T06:58:47.523Z,78960.19
2022-12-14T07:01:17.643Z,78964.16
2022-12-14T07:03:48.601Z,78944.28
2022-12-14T07:06:15.393Z,78932.34
2022-12-14T07:08:41.934Z,78920.41
2022-12-14T07:11:11.191Z,78918.41
2022-12-14T07:13:38.173Z,78936.31
2022-12-14T07:16:06.387Z,78928.34
2022-12-14T07:18:33.787Z,78896.53
2022-12-14T07:21:02.975Z,78902.50
2022-12-14T07:23:32.060Z,78906.47
2022-12-14T07:26:06.242Z,78902.50
2022-12-14T07:28:33.261Z,78906.47
2022-12-14T07:31:00.543Z,78908.47
2022-12-14T07:33:28.298Z,78928.34
2022-12-14T07:36:06.237Z,78908.47
2022-12-14T07:38:33.755Z,78916.44
2022-12-14T07:41:20.368Z,78910.47
2022-12-14T07:43:49.838Z,78912.44
2022-12-14T07:46:19.914Z,78906.47
2022-12-14T07:48:48.449Z,78906.47
2022-12-14T07:51:17.290Z,78916.44
2022-12-14T07:53:43.873Z,78906.47
2022-12-14T07:56:15.807Z,78912.44
2022-12-14T07:58:42.610Z,78902.50
2022-12-14T08:01:14.041Z,78902.50
2022-12-14T08:03:42.745Z,78902.50
2022-12-14T08:06:11.228Z,78890.56
2022-12-14T08:08:38.297Z,78888.59
2022-12-14T08:11:05.768Z,78892.56
2022-12-14T08:13:32.758Z,78882.63
2022-12-14T08:16:16.378Z,78856.78
2022-12-14T08:18:43.314Z,78850.81
2022-12-14T08:21:11.894Z,78838.88
2022-12-14T08:23:39.307Z,78824.97
2022-12-14T08:26:06.864Z,78807.06
2022-12-14T08:28:34.831Z,78807.06
2022-12-14T08:31:10.556Z,78785.19
2022-12-14T08:33:39.326Z,78763.31
2022-12-14T08:36:17.599Z,78771.28
2022-12-14T08:38:44.469Z,78741.44
2022-12-14T08:41:13.337Z,78727.53
2022-12-14T08:43:40.693Z,78733.50
2022-12-14T08:46:09.346Z,78719.56
2022-12-14T08:48:36.097Z,78725.53
2022-12-14T08:51:04.931Z,78719.56
2022-12-14T08:53:32.233Z,78695.72
2022-12-14T08:56:04.879Z,78705.66
2022-12-14T08:58:31.557Z,78705.66
2022-12-14T09:01:12.362Z,78689.75
2022-12-14T09:03:42.565Z,78677.81
2022-12-14T09:06:11.592Z,78659.91
2022-12-14T09:08:38.538Z,78663.91
2022-12-14T09:11:06.387Z,78655.94
2022-12-14T09:13:33.843Z,78638.03
2022-12-14T09:16:14.691Z,78634.06
2022-12-14T09:18:41.375Z,78622.13
2022-12-14T09:21:08.809Z,78616.16
2022-12-14T09:23:35.979Z,78602.25
2022-12-14T09:26:08.646Z,78598.28
2022-12-14T09:28:37.461Z,78584.34
2022-12-14T09:31:06.884Z,78558.50
2022-12-14T09:33:34.615Z,78570.44
2022-12-14T09:36:12.132Z,78548.56
2022-12-14T09:38:39.334Z,78538.63
2022-12-14T09:41:16.736Z,78530.69
2022-12-14T09:43:51.812Z,78540.63
2022-12-14T09:46:47.883Z,78514.78
2022-12-14T09:49:46.629Z,78512.78
2022-12-14T09:52:16.715Z,78494.88
2022-12-14T09:54:45.479Z,78486.94
2022-12-14T09:57:27.456Z,78459.09
2022-12-14T09:59:54.577Z,78469.03
2022-12-14T10:02:32.549Z,78469.03
2022-12-14T10:05:19.688Z,78461.09
2022-12-14T10:07:59.472Z,78459.09
2022-12-14T10:10:44.861Z,78429.28
2022-12-14T10:13:28.848Z,78437.22
2022-12-14T10:16:10.976Z,78423.31
2022-12-14T10:19:15.975Z,78399.44
2022-12-14T10:21:49.590Z,78387.53
2022-12-14T10:24:22.369Z,78395.47
2022-12-14T10:26:52.795Z,78387.53
2022-12-14T10:29:54.673Z,78393.47
2022-12-14T10:32:49.294Z,78379.56
2022-12-14T10:35:18.935Z,78373.59
2022-12-14T10:38:04.459Z,78391.50
2022-12-14T10:40:34.823Z,78381.56
2022-12-14T10:43:32.273Z,78371.63
2022-12-14T10:46:22.324Z,78349.75
2022-12-14T10:49:01.146Z,78351.72
2022-12-14T10:51:48.852Z,78337.81
2022-12-14T10:54:15.422Z,78306.00
2022-12-14T10:56:43.544Z,78325.88
2022-12-14T10:59:25.321Z,78315.94
2022-12-14T11:02:16.954Z,78292.09
2022-12-14T11:04:51.108Z,78311.97
2022-12-14T11:07:25.422Z,78294.06
2022-12-14T11:09:52.660Z,78272.19
2022-12-14T11:12:21.900Z,78282.16
2022-12-14T11:15:02.980Z,78266.25
2022-12-14T11:17:44.541Z,78262.25
2022-12-14T11:20:25.303Z,78274.19
2022-12-14T11:22:57.558Z,78258.28
2022-12-14T11:25:36.283Z,78266.25
2022-12-14T11:28:25.666Z,78270.22
2022-12-14T11:31:08.300Z,78256.28
2022-12-14T11:33:41.061Z,78266.25
2022-12-14T11:36:08.685Z,78272.19
2022-12-14T11:38:35.734Z,78250.34
2022-12-14T11:41:10.766Z,78230.44
2022-12-14T11:43:38.903Z,78244.38
2022-12-14T11:46:05.963Z,78216.53
2022-12-14T11:48:36.785Z,78216.53
2022-12-14T11:51:13.649Z,78212.56
2022-12-14T11:53:41.441Z,78190.69
2022-12-14T11:56:14.680Z,78192.69
2022-12-14T11:58:52.272Z,78180.75
2022-12-14T12:01:24.537Z,78152.91
2022-12-14T12:03:55.041Z,78142.97
2022-12-14T12:06:25.138Z,78139.00
2022-12-14T12:08:58.315Z,78148.94
2022-12-14T12:11:28.439Z,78144.97
2022-12-14T12:14:07.357Z,78148.94
2022-12-14T12:16:35.448Z,78144.97
2022-12-14T12:19:12.844Z,78160.88
2022-12-14T12:21:44.804Z,78170.81
2022-12-14T12:24:23.516Z,78178.75
2022-12-14T12:27:03.411Z,78178.75
2022-12-14T12:29:37.223Z,78170.81
2022-12-14T12:32:14.201Z,78172.78
2022-12-14T12:34:56.035Z,78152.91
2022-12-14T12:37:36.692Z,78142.97
2022-12-14T12:40:19.170Z,78158.88
2022-12-14T12:42:47.765Z,78160.88
2022-12-14T12:45:39.473Z,78170.81
2022-12-14T12:48:14.714Z,78194.66
2022-12-14T12:50:49.780Z,78188.69
2022-12-14T12:53:21.305Z,78186.72
2022-12-14T12:55:53.555Z,78172.78
2022-12-14T12:58:24.868Z,78172.78
2022-12-14T13:00:55.667Z,78162.84
2022-12-14T13:03:29.441Z,78142.97
2022-12-14T13:06:07.409Z,78150.94
2022-12-14T13:08:40.095Z,78158.88
2022-12-14T13:11:28.442Z,78182.75
2022-12-14T13:14:00.614Z,78182.75
2022-12-14T13:16:34.650Z,78184.72
2022-12-14T13:19:41.018Z,78196.66
2022-12-14T13:22:03.309Z,78212.56
2022-12-14T13:24:31.814Z,78204.59
2022-12-14T13:27:34.755Z,78200.63
2022-12-14T13:30:18.275Z,78200.63
2022-12-14T13:33:16.118Z,78206.59
2022-12-14T13:36:01.215Z,78192.69
2022-12-14T13:38:56.688Z,78178.75
2022-12-14T13:41:53.157Z,78194.66
2022-12-14T13:44:54.006Z,78170.81
2022-12-14T13:47:25.919Z,78158.88
2022-12-14T13:50:34.934Z,78152.91
2022-12-14T13:52:50.274Z,78158.88
2022-12-14T13:55:38.484Z,78166.84
2022-12-14T13:58:21.710Z,78162.84
2022-12-14T14:01:16.503Z,78142.97
2022-12-14T14:03:45.915Z,78139.00
2022-12-14T14:06:12.367Z,78148.94
2022-12-14T14:08:42.253Z,78144.97
2022-12-14T14:11:36.482Z,78154.91
2022-12-14T14:14:15.719Z,78172.78
2022-12-14T14:16:47.070Z,78148.94
2022-12-14T14:19:22.680Z,78172.78
2022-12-14T14:22:24.986Z,78168.81
2022-12-14T14:25:09.388Z,78160.88
2022-12-14T14:27:39.192Z,78137.00
2022-12-14T14:30:32.154Z,78152.91
2022-12-14T14:33:35.818Z,78141.00
2022-12-14T14:35:49.946Z,78162.84
2022-12-14T14:38:31.897Z,78182.75
2022-12-14T14:41:18.416Z,78184.72
2022-12-14T14:44:00.001Z,78196.66
2022-12-14T14:46:43.533Z,78196.66
2022-12-14T14:49:31.888Z,78230.44
2022-12-14T14:52:36.821Z,78224.50
2022-12-14T14:58:35.179Z,78234.44
2022-12-14T15:01:12.403Z,78262.25
2022-12-14T15:03:45.250Z,78238.41
2022-12-14T15:06:17.027Z,78258.28
2022-12-14T15:08:49.153Z,78270.22
2022-12-14T15:11:19.781Z,78286.13
2022-12-14T15:13:52.165Z,78280.16
2022-12-14T15:16:27.209Z,78268.22
2022-12-14T15:19:36.776Z,78284.13
2022-12-14T15:22:06.744Z,78296.06
2022-12-14T15:24:38.859Z,78300.03
2022-12-14T15:27:37.015Z,78294.06
2022-12-14T15:30:12.414Z,78306.00
2022-12-14T15:32:47.219Z,78309.97
2022-12-14T15:35:21.843Z,78308.00
2022-12-14T15:37:58.056Z,78315.94
2022-12-14T15:40:30.216Z,78315.94
2022-12-14T15:42:59.430Z,78304.00
2022-12-14T15:45:40.901Z,78319.91
2022-12-14T15:48:14.283Z,78317.94
2022-12-14T15:50:44.323Z,78323.91
2022-12-14T15:53:17.135Z,78345.75
2022-12-14T15:55:47.620Z,78341.78
2022-12-14T15:58:13.977Z,78329.84
2022-12-14T16:00:43.691Z,78343.78
2022-12-14T16:03:18.788Z,78323.91
2022-12-14T16:05:45.648Z,78343.78
2022-12-14T16:08:14.744Z,78329.84
2022-12-14T16:10:42.377Z,78343.78
2022-12-14T16:13:16.973Z,78333.84
2022-12-14T16:15:43.621Z,78327.88
2022-12-14T16:18:14.021Z,78345.75
2022-12-14T16:20:43.767Z,78341.78
2022-12-14T16:23:13.980Z,78359.69
2022-12-14T16:26:04.069Z,78347.75
2022-12-14T16:28:33.419Z,78353.72
2022-12-14T16:31:06.301Z,78369.63
2022-12-14T16:33:35.161Z,78395.47
2022-12-14T16:36:12.246Z,78401.44
2022-12-14T16:38:59.774Z,78375.59
2022-12-14T16:41:39.893Z,78383.53
2022-12-14T16:44:09.703Z,78385.53
2022-12-14T16:46:36.627Z,78381.56
2022-12-14T16:49:29.147Z,78385.53
2022-12-14T16:52:27.001Z,78391.50
2022-12-14T16:55:12.270Z,78409.38
2022-12-14T16:57:49.218Z,78427.28
2022-12-14T17:00:31.377Z,78415.34
2022-12-14T17:03:00.945Z,78427.28
2022-12-14T17:05:40.288Z,78427.28
2022-12-14T17:08:07.713Z,78453.13
2022-12-14T17:10:34.835Z,78455.13
2022-12-14T17:13:02.601Z,78453.13
2022-12-14T17:15:32.624Z,78469.03
2022-12-14T17:18:01.644Z,78471.03
2022-12-14T17:20:31.178Z,78478.97
2022-12-14T17:23:00.149Z,78494.88
2022-12-14T17:25:27.569Z,78480.97
2022-12-14T17:27:54.821Z,78478.97
2022-12-14T17:30:23.058Z,78512.78
2022-12-14T17:32:50.853Z,78522.72
2022-12-14T17:35:22.424Z,78516.75
2022-12-14T17:37:49.276Z,78534.66
2022-12-14T17:40:16.195Z,78518.75
2022-12-14T17:42:47.023Z,78532.66
2022-12-14T17:45:20.683Z,78532.66
2022-12-14T17:47:47.632Z,78524.72
2022-12-14T17:50:15.632Z,78538.63
2022-12-14T17:52:43.347Z,78534.66
2022-12-14T17:55:22.001Z,78542.59
2022-12-14T17:57:49.479Z,78540.63
2022-12-14T18:00:46.504Z,78546.59
2022-12-14T18:03:14.353Z,78558.50
2022-12-14T18:05:48.056Z,78550.56
2022-12-14T18:08:17.017Z,78566.47
2022-12-14T18:10:43.871Z,78574.41
2022-12-14T18:13:14.190Z,78558.50
2022-12-14T18:15:44.748Z,78556.53
2022-12-14T18:18:21.896Z,78584.34
2022-12-14T18:20:51.930Z,78596.28
2022-12-14T18:23:19.507Z,78586.34
2022-12-14T18:25:54.345Z,78566.47
2022-12-14T18:28:21.704Z,78558.50
2022-12-14T18:30:52.784Z,78602.25
2022-12-14T18:33:22.078Z,78602.25
2022-12-14T18:35:49.829Z,78582.38
2022-12-14T18:38:16.374Z,78598.28
2022-12-14T18:40:49.867Z,78626.13
2022-12-14T18:43:23.427Z,78632.06
2022-12-14T18:45:52.029Z,78594.31
2022-12-14T18:48:18.935Z,78594.31
2022-12-14T18:50:45.898Z,78630.09
2022-12-14T18:53:18.098Z,78600.25
2022-12-14T18:55:44.674Z,78608.22
2022-12-14T18:58:20.223Z,78634.06
2022-12-14T19:00:48.507Z,78649.97
2022-12-14T19:03:15.279Z,78659.91
2022-12-14T19:05:41.923Z,78669.84
2022-12-14T19:08:10.297Z,78665.88
2022-12-14T19:10:40.205Z,78622.13
2022-12-14T19:13:06.819Z,78638.03
2022-12-14T19:15:35.054Z,78651.97
2022-12-14T19:18:02.097Z,78638.03
2022-12-14T19:20:29.309Z,78649.97
2022-12-14T19:22:56.322Z,78651.97
2022-12-14T19:25:23.843Z,78667.88
2022-12-14T19:30:38.655Z,78673.84
2022-12-14T19:33:05.039Z,78681.78
2022-12-14T19:35:31.847Z,78685.75
2022-12-14T19:37:58.352Z,78669.84
2022-12-14T19:40:24.759Z,78671.84
2022-12-14T19:42:51.273Z,78681.78
2022-12-14T19:45:17.892Z,78665.88
2022-12-14T19:47:44.273Z,78655.94
2022-12-14T19:50:13.627Z,78667.88
2022-12-14T19:52:40.470Z,78671.84
2022-12-14T19:55:07.256Z,78679.81
2022-12-14T19:57:33.684Z,78701.66
2022-12-14T20:00:00.236Z,78673.84
2022-12-14T20:02:27.354Z,78667.88
2022-12-14T20:04:54.043Z,78667.88
2022-12-14T20:07:20.644Z,78695.72
2022-12-14T20:09:47.001Z,78709.63
2022-12-14T20:12:13.485Z,78725.53
2022-12-14T20:14:40.105Z,78731.50
2022-12-14T20:17:11.131Z,78723.53
2022-12-14T20:19:38.783Z,78723.53
2022-12-14T20:22:05.752Z,78723.53
2022-12-14T20:24:32.371Z,78733.50
2022-12-14T20:26:58.945Z,78753.38
2022-12-14T20:29:25.734Z,78763.31
2022-12-14T20:31:52.479Z,78783.19
2022-12-14T20:34:19.044Z,78791.16
2022-12-14T20:36:45.579Z,78781.22
2022-12-14T20:39:12.045Z,78779.22
2022-12-14T20:41:38.568Z,78767.28
2022-12-14T20:44:12.066Z,78785.19
2022-12-14T20:46:42.133Z,78797.13
2022-12-14T20:49:14.007Z,78797.13
2022-12-14T20:51:41.111Z,78791.16
2022-12-14T20:54:10.973Z,78751.38
2022-12-14T20:56:38.163Z,78745.41
2022-12-14T20:59:04.920Z,78753.38
2022-12-14T21:01:31.713Z,78735.47
2022-12-14T21:04:00.867Z,78747.41
2022-12-14T21:06:27.557Z,78749.41
2022-12-14T21:09:09.418Z,78735.47
2022-12-14T21:11:58.253Z,78731.50
2022-12-14T21:14:27.368Z,78733.50
2022-12-14T21:16:54.525Z,78749.41
2022-12-14T21:19:21.572Z,78737.47
2022-12-14T21:21:53.515Z,78751.38
2022-12-14T21:24:44.771Z,78759.34
2022-12-14T21:27:14.797Z,78779.22
2022-12-14T21:29:41.236Z,78797.13
2022-12-14T21:32:07.942Z,78789.16
2022-12-14T21:34:34.543Z,78765.31
2022-12-14T21:37:01.095Z,78781.22
2022-12-14T21:39:27.523Z,78787.19
2022-12-14T21:42:12.856Z,78795.13
2022-12-14T21:44:47.746Z,78807.06
2022-12-14T21:47:20.249Z,78789.16
2022-12-14T21:49:47.021Z,78789.16
2022-12-14T21:52:16.213Z,78824.97
2022-12-14T21:54:43.722Z,78801.09
2022-12-14T21:57:37.642Z,78807.06
2022-12-14T22:00:06.850Z,78828.94
2022-12-14T22:02:33.518Z,78820.97
2022-12-14T22:05:00.052Z,78820.97
2022-12-14T22:07:31.346Z,78801.09
2022-12-14T22:09:58.416Z,78793.13
2022-12-14T22:12:25.009Z,78848.81
2022-12-14T22:14:51.852Z,78856.78
2022-12-14T22:17:18.246Z,78872.69
2022-12-14T22:19:44.645Z,78878.66
2022-12-14T22:22:15.862Z,78892.56
2022-12-14T22:24:43.151Z,78896.53
2022-12-14T22:27:11.613Z,78870.69
2022-12-14T22:29:38.538Z,78850.81
2022-12-14T22:32:05.405Z,78822.97
2022-12-14T22:34:32.174Z,78813.03
2022-12-14T22:36:58.659Z,78854.78
2022-12-14T22:39:25.143Z,78846.84
2022-12-14T22:41:51.564Z,78880.63
2022-12-14T22:44:18.081Z,78886.59
2022-12-14T22:46:45.505Z,78894.56
2022-12-14T22:49:17.173Z,78862.75
2022-12-14T22:51:43.882Z,78884.59
2022-12-14T22:54:22.994Z,78910.47
2022-12-14T22:56:57.409Z,78896.53
2022-12-14T22:59:30.515Z,78856.78
2022-12-14T23:01:58.959Z,78876.66
2022-12-14T23:04:25.689Z,78866.72
2022-12-14T23:06:52.712Z,78900.53
2022-12-14T23:09:37.681Z,78912.44
2022-12-14T23:12:23.015Z,78890.56
2022-12-14T23:15:08.420Z,78900.53
2022-12-14T23:17:54.253Z,78870.69
2022-12-14T23:20:39.126Z,78888.59
2022-12-14T23:23:25.561Z,78896.53
2022-12-14T23:26:11.071Z,78892.56
2022-12-14T23:28:56.403Z,78888.59
2022-12-14T23:31:41.248Z,78920.41
2022-12-14T23:34:26.314Z,78924.38
2022-12-14T23:37:15.068Z,78914.44
2022-12-14T23:40:05.003Z,78886.59
2022-12-14T23:42:49.858Z,78876.66
2022-12-14T23:45:34.920Z,78884.59
2022-12-14T23:48:19.764Z,78880.63
2022-12-14T23:51:04.739Z,78882.63
2022-12-14T23:53:49.969Z,78878.66
2022-12-14T23:56:35.396Z,78880.63
2022-12-14T23:59:20.297Z,78872.69
